Time;durP1;ratioP1;P1;durP2;ratioP2;P2;SDS_P1;SDS_P2;PMS_P1;PMS_P2;Temp;Humidity;BMP_temperature;BMP_pressure;BME280_temperature;BME280_humidity;BME280_pressure;Samples;Min_cycle;Max_cycle;Signal;HPM_P1;HPM_P2
2022/07/27 00:00:31;;;;;;;0.25;0.25;;;16.00;99.90;;;;;;5042196;28;20053;-69
2022/07/27 00:02:57;;;;;;;0.10;0.10;;;16.00;99.90;;;;;;5035337;28;20052;-68
2022/07/27 00:05:23;;;;;;;0.00;0.00;;;16.00;99.90;;;;;;5028098;28;20034;-69
2022/07/27 00:07:49;;;;;;;0.00;0.00;;;15.90;99.90;;;;;;5036196;28;20071;-69
2022/07/27 00:10:15;;;;;;;0.20;0.20;;;15.90;99.90;;;;;;5048316;28;20048;-69
2022/07/27 00:12:41;;;;;;;0.00;0.00;;;15.80;99.90;;;;;;5035387;28;20045;-69
2022/07/27 00:15:08;;;;;;;0.20;0.20;;;15.80;99.90;;;;;;5033091;28;20523;-69
2022/07/27 00:17:33;;;;;;;0.03;0.03;;;15.70;99.90;;;;;;5041468;28;20095;-69
2022/07/27 00:19:59;;;;;;;0.10;0.10;;;15.70;99.90;;;;;;5031758;28;20489;-69
2022/07/27 00:22:24;;;;;;;0.10;0.10;;;15.60;99.90;;;;;;5045484;28;20094;-69
2022/07/27 00:24:50;;;;;;;0.00;0.00;;;15.50;99.90;;;;;;5043271;28;20128;-69
2022/07/27 00:27:16;;;;;;;0.10;0.10;;;15.50;99.90;;;;;;5032011;28;20087;-69
2022/07/27 00:29:42;;;;;;;0.38;0.38;;;15.30;99.90;;;;;;5047802;28;20084;-69
2022/07/27 00:32:07;;;;;;;0.10;0.10;;;15.40;99.90;;;;;;5037897;28;20048;-69
2022/07/27 00:34:33;;;;;;;0.20;0.20;;;15.30;99.90;;;;;;5027941;28;20468;-69
2022/07/27 00:36:59;;;;;;;0.85;0.82;;;15.30;99.90;;;;;;5044953;28;20040;-69
2022/07/27 00:39:25;;;;;;;0.00;0.00;;;15.30;99.90;;;;;;5036538;28;20068;-69
2022/07/27 00:41:50;;;;;;;0.32;0.32;;;15.30;99.90;;;;;;5041698;28;20045;-69
2022/07/27 00:44:27;;;;;;;0.10;0.10;;;15.20;99.90;;;;;;5048368;28;20485;-68
2022/07/27 00:46:53;;;;;;;0.08;0.08;;;15.20;99.90;;;;;;5042436;28;20100;-69
2022/07/27 00:49:18;;;;;;;0.10;0.10;;;15.10;99.90;;;;;;5035499;28;20041;-69
2022/07/27 00:51:44;;;;;;;0.00;0.00;;;14.90;99.90;;;;;;5045084;28;20404;-69
2022/07/27 00:54:10;;;;;;;0.10;0.10;;;15.00;99.90;;;;;;5041964;28;20037;-68
2022/07/27 00:56:36;;;;;;;1.35;1.10;;;14.90;99.90;;;;;;5030335;28;20053;-68
2022/07/27 00:59:02;;;;;;;0.10;0.10;;;14.80;99.90;;;;;;5027174;28;20136;-68
2022/07/27 01:01:27;;;;;;;5.00;2.40;;;14.70;99.90;;;;;;5045600;28;20076;-68
2022/07/27 01:03:53;;;;;;;0.20;0.20;;;14.70;99.90;;;;;;5045656;28;20508;-69
2022/07/27 01:06:18;;;;;;;0.00;0.00;;;14.70;99.90;;;;;;5034244;28;20154;-69
2022/07/27 01:08:44;;;;;;;0.08;0.08;;;14.70;99.90;;;;;;5033823;28;20068;-69
2022/07/27 01:11:10;;;;;;;0.35;0.28;;;14.70;99.90;;;;;;5042473;28;20037;-68
2022/07/27 01:13:36;;;;;;;0.00;0.00;;;14.70;99.90;;;;;;5027904;28;20065;-69
2022/07/27 01:16:06;;;;;;;0.10;0.10;;;14.70;99.90;;;;;;5033962;28;20037;-69
2022/07/27 01:18:34;;;;;;;0.03;0.03;;;14.60;99.90;;;;;;5031583;28;20378;-69
2022/07/27 01:21:02;;;;;;;0.10;0.10;;;14.60;99.90;;;;;;5042771;28;20519;-69
2022/07/27 01:23:31;;;;;;;0.00;0.00;;;14.60;99.90;;;;;;5046297;28;20055;-69
2022/07/27 01:25:57;;;;;;;0.10;0.10;;;14.50;99.90;;;;;;5040949;28;20037;-69
2022/07/27 01:28:23;;;;;;;0.08;0.08;;;14.50;99.90;;;;;;5032062;28;20053;-69
2022/07/27 01:30:48;;;;;;;0.10;0.10;;;14.50;99.90;;;;;;5041226;28;20586;-68
2022/07/27 01:33:14;;;;;;;0.00;0.00;;;14.50;99.90;;;;;;5047742;28;20935;-68
2022/07/27 01:35:40;;;;;;;0.00;0.00;;;14.50;99.90;;;;;;5044280;28;20048;-68
2022/07/27 01:38:08;;;;;;;0.10;0.10;;;14.40;99.90;;;;;;5037601;28;20053;-69
2022/07/27 01:40:35;;;;;;;0.00;0.00;;;14.40;99.90;;;;;;5046317;28;20743;-68
2022/07/27 01:43:01;;;;;;;0.30;0.30;;;14.40;99.90;;;;;;5032382;28;20074;-68
2022/07/27 01:45:27;;;;;;;0.00;0.00;;;14.40;99.90;;;;;;5028222;28;20045;-69
2022/07/27 01:47:53;;;;;;;0.10;0.10;;;14.30;99.90;;;;;;5046629;28;20049;-68
2022/07/27 01:50:18;;;;;;;0.00;0.00;;;14.30;99.90;;;;;;5032354;28;20075;-69
2022/07/27 01:52:44;;;;;;;0.00;0.00;;;14.20;99.90;;;;;;5032380;28;20392;-69
2022/07/27 01:55:10;;;;;;;0.10;0.10;;;14.20;99.90;;;;;;5046793;28;20135;-69
2022/07/27 01:57:37;;;;;;;0.00;0.00;;;14.10;99.90;;;;;;5029037;28;20042;-69
2022/07/27 02:00:09;;;;;;;0.00;0.00;;;14.10;99.90;;;;;;5045808;28;20068;-68
2022/07/27 02:02:35;;;;;;;0.00;0.00;;;14.20;99.90;;;;;;5050380;28;20072;-69
2022/07/27 02:05:00;;;;;;;17.45;1.10;;;14.20;99.90;;;;;;5034873;28;20143;-69
2022/07/27 02:07:26;;;;;;;0.73;0.55;;;14.20;99.90;;;;;;5036216;28;20041;-69
2022/07/27 02:09:51;;;;;;;0.10;0.10;;;14.30;99.90;;;;;;5048531;28;20072;-69
2022/07/27 02:12:35;;;;;;;0.20;0.20;;;14.30;99.90;;;;;;5031592;28;20055;-68
2022/07/27 02:15:14;;;;;;;0.32;0.32;;;14.30;99.90;;;;;;5033661;28;20044;-69
2022/07/27 02:17:41;;;;;;;0.03;0.03;;;14.40;99.90;;;;;;5037643;28;20060;-69
2022/07/27 02:20:08;;;;;;;7.78;2.08;;;14.40;99.90;;;;;;5036964;28;20044;-69
2022/07/27 02:22:34;;;;;;;0.47;0.47;;;14.50;99.90;;;;;;5042076;28;20558;-69
2022/07/27 02:25:00;;;;;;;0.00;0.00;;;14.50;99.90;;;;;;5035491;28;20046;-69
2022/07/27 02:27:26;;;;;;;0.10;0.10;;;14.50;99.90;;;;;;5043332;28;20094;-69
2022/07/27 02:29:52;;;;;;;0.10;0.10;;;14.50;99.90;;;;;;5050255;28;20071;-69
2022/07/27 02:32:18;;;;;;;0.20;0.20;;;14.50;99.90;;;;;;5035816;28;20140;-68
2022/07/27 02:34:44;;;;;;;0.10;0.10;;;14.50;99.90;;;;;;5030478;28;20049;-69
2022/07/27 02:37:10;;;;;;;0.00;0.00;;;14.60;99.90;;;;;;5042331;28;20052;-69
2022/07/27 02:39:36;;;;;;;0.05;0.05;;;14.60;99.90;;;;;;5049990;28;20048;-69
2022/07/27 02:42:02;;;;;;;0.10;0.10;;;14.60;99.90;;;;;;5041324;28;20052;-69
2022/07/27 02:44:28;;;;;;;0.10;0.10;;;14.70;99.90;;;;;;5030499;28;20122;-69
2022/07/27 02:46:53;;;;;;;0.00;0.00;;;14.70;99.90;;;;;;5044774;28;20060;-69
2022/07/27 02:49:19;;;;;;;0.00;0.00;;;14.70;99.90;;;;;;5048073;28;20071;-69
2022/07/27 02:51:51;;;;;;;0.10;0.10;;;14.70;99.90;;;;;;5040847;28;20059;-69
2022/07/27 02:54:20;;;;;;;0.00;0.00;;;14.70;99.90;;;;;;5046297;28;20047;-69
2022/07/27 02:56:47;;;;;;;0.10;0.10;;;14.80;99.90;;;;;;5048994;28;20041;-69
2022/07/27 02:59:13;;;;;;;0.00;0.00;;;14.80;99.90;;;;;;5043753;28;20080;-68
2022/07/27 03:01:38;;;;;;;0.00;0.00;;;14.80;99.90;;;;;;5037989;28;20137;-69
2022/07/27 03:04:05;;;;;;;0.03;0.03;;;14.80;99.90;;;;;;5047774;28;20041;-69
2022/07/27 03:06:30;;;;;;;0.47;0.47;;;14.80;99.90;;;;;;5037983;28;20049;-69
2022/07/27 03:08:56;;;;;;;0.08;0.08;;;14.80;99.90;;;;;;5030184;28;20049;-69
2022/07/27 03:11:21;;;;;;;0.10;0.10;;;14.80;99.90;;;;;;5036106;28;20037;-69
2022/07/27 03:13:47;;;;;;;0.10;0.10;;;14.90;99.90;;;;;;5048627;28;20040;-69
2022/07/27 03:16:12;;;;;;;0.47;0.47;;;14.80;99.90;;;;;;5033748;28;20052;-69
2022/07/27 03:18:38;;;;;;;0.10;0.10;;;14.80;99.90;;;;;;5029288;28;20118;-69
2022/07/27 03:21:05;;;;;;;0.20;0.20;;;14.70;99.90;;;;;;5044288;28;20044;-69
2022/07/27 03:23:30;;;;;;;0.15;0.15;;;14.70;99.90;;;;;;5044693;28;20045;-69
2022/07/27 03:25:56;;;;;;;0.10;0.10;;;14.70;99.90;;;;;;5029480;28;20045;-69
2022/07/27 03:28:21;;;;;;;0.10;0.10;;;14.70;99.90;;;;;;5037377;28;20048;-69
2022/07/27 03:30:47;;;;;;;12.30;0.80;;;14.70;99.90;;;;;;5044819;28;20522;-69
2022/07/27 03:33:12;;;;;;;0.10;0.10;;;14.70;99.90;;;;;;5029334;28;20053;-69
2022/07/27 03:35:38;;;;;;;0.10;0.10;;;14.70;99.90;;;;;;5029546;28;20425;-69
2022/07/27 03:38:04;;;;;;;0.10;0.10;;;14.70;99.90;;;;;;5026636;28;20041;-69
2022/07/27 03:40:31;;;;;;;0.00;0.00;;;14.70;99.90;;;;;;5029430;28;20136;-69
2022/07/27 03:42:57;;;;;;;0.10;0.10;;;14.80;99.90;;;;;;5047670;28;20095;-69
2022/07/27 03:45:23;;;;;;;0.00;0.00;;;14.80;99.90;;;;;;5035054;28;20414;-70
2022/07/27 03:47:48;;;;;;;0.20;0.20;;;14.90;99.90;;;;;;5046745;28;20075;-70
2022/07/27 03:50:14;;;;;;;0.17;0.17;;;14.80;99.90;;;;;;5048878;28;20049;-70
2022/07/27 03:52:39;;;;;;;0.10;0.10;;;14.80;99.90;;;;;;5030609;28;20148;-70
2022/07/27 03:55:06;;;;;;;0.08;0.08;;;14.80;99.90;;;;;;5038114;28;20076;-70
2022/07/27 03:57:31;;;;;;;0.20;0.20;;;14.80;99.90;;;;;;5049278;28;20039;-70
2022/07/27 03:59:57;;;;;;;0.00;0.00;;;14.80;99.90;;;;;;5039948;28;20049;-70
2022/07/27 04:02:22;;;;;;;0.10;0.10;;;14.80;99.90;;;;;;5032971;28;20060;-70
2022/07/27 04:04:48;;;;;;;0.10;0.10;;;14.80;99.90;;;;;;5045741;28;20052;-70
2022/07/27 04:07:14;;;;;;;0.10;0.10;;;14.80;99.90;;;;;;5047684;28;20048;-70
2022/07/27 04:09:39;;;;;;;0.63;0.45;;;14.70;99.90;;;;;;5036278;28;20041;-70
2022/07/27 04:12:05;;;;;;;0.00;0.00;;;14.80;99.90;;;;;;5027147;28;20045;-69
2022/07/27 04:14:30;;;;;;;0.08;0.08;;;14.80;99.90;;;;;;5042714;28;20045;-69
2022/07/27 04:16:56;;;;;;;0.40;0.40;;;14.70;99.90;;;;;;5031372;28;20049;-70
2022/07/27 04:19:22;;;;;;;0.10;0.10;;;14.70;99.90;;;;;;5046656;28;20041;-69
2022/07/27 04:21:47;;;;;;;0.00;0.00;;;14.70;99.90;;;;;;5043418;28;20520;-70
2022/07/27 04:24:13;;;;;;;0.10;0.10;;;14.80;99.90;;;;;;5028315;28;20060;-70
2022/07/27 04:26:38;;;;;;;0.30;0.30;;;14.80;99.90;;;;;;5027016;28;20049;-70
2022/07/27 04:29:04;;;;;;;0.10;0.10;;;14.80;99.90;;;;;;5027342;28;20037;-70
2022/07/27 04:31:30;;;;;;;0.32;0.32;;;14.90;99.90;;;;;;5035415;28;20047;-69
2022/07/27 04:33:56;;;;;;;0.00;0.00;;;14.80;99.90;;;;;;5045468;28;20234;-68
2022/07/27 04:36:21;;;;;;;0.10;0.10;;;14.90;99.90;;;;;;5062195;28;20544;-68
2022/07/27 04:38:47;;;;;;;0.20;0.20;;;14.90;99.90;;;;;;5045487;28;20041;-68
2022/07/27 04:41:12;;;;;;;0.10;0.10;;;14.90;99.90;;;;;;5045123;28;20134;-68
2022/07/27 04:43:38;;;;;;;0.85;0.30;;;15.00;99.90;;;;;;5028252;28;20092;-68
2022/07/27 04:46:04;;;;;;;0.10;0.10;;;15.10;99.90;;;;;;5032945;28;20401;-68
2022/07/27 04:48:34;;;;;;;0.08;0.08;;;15.10;99.90;;;;;;5027255;28;20527;-68
2022/07/27 04:50:59;;;;;;;0.10;0.10;;;15.10;99.90;;;;;;5028218;28;20053;-68
2022/07/27 04:53:25;;;;;;;0.10;0.10;;;15.10;99.90;;;;;;5028495;28;20052;-68
2022/07/27 04:55:51;;;;;;;0.10;0.10;;;15.00;99.90;;;;;;5027486;28;20136;-69
2022/07/27 04:58:16;;;;;;;0.00;0.00;;;15.00;99.90;;;;;;5037843;28;20045;-69
2022/07/27 05:00:42;;;;;;;0.10;0.10;;;14.90;99.90;;;;;;5041372;28;20078;-68
2022/07/27 05:03:08;;;;;;;0.10;0.10;;;14.90;99.90;;;;;;5041989;28;20045;-68
2022/07/27 05:05:34;;;;;;;0.10;0.10;;;14.90;99.90;;;;;;5044186;28;20115;-68
2022/07/27 05:08:00;;;;;;;0.10;0.10;;;14.80;99.90;;;;;;5026638;28;20053;-69
2022/07/27 05:10:26;;;;;;;0.10;0.10;;;14.80;99.90;;;;;;5028546;28;20032;-68
2022/07/27 05:12:51;;;;;;;0.10;0.10;;;14.80;99.90;;;;;;5028267;28;20856;-68
2022/07/27 05:15:18;;;;;;;0.00;0.00;;;14.70;99.90;;;;;;5031342;28;20048;-69
2022/07/27 05:17:44;;;;;;;0.08;0.08;;;14.70;99.90;;;;;;5033594;28;20084;-69
2022/07/27 05:20:10;;;;;;;0.20;0.20;;;14.80;99.90;;;;;;5027178;28;20057;-68
2022/07/27 05:22:36;;;;;;;0.00;0.00;;;14.80;99.90;;;;;;5034518;28;20045;-68
2022/07/27 05:25:02;;;;;;;0.40;0.40;;;14.70;99.90;;;;;;5045499;28;20094;-68
2022/07/27 05:27:27;;;;;;;0.10;0.10;;;14.80;99.90;;;;;;5045819;28;20120;-69
2022/07/27 05:29:53;;;;;;;0.10;0.10;;;14.90;99.90;;;;;;5046603;28;20124;-69
2022/07/27 05:32:18;;;;;;;0.00;0.00;;;14.90;99.90;;;;;;5040816;28;20048;-69
2022/07/27 05:34:45;;;;;;;12.57;0.82;;;15.00;99.90;;;;;;5030360;28;20044;-68
2022/07/27 05:37:11;;;;;;;0.00;0.00;;;15.00;99.90;;;;;;5030895;28;20056;-68
2022/07/27 05:39:37;;;;;;;0.10;0.10;;;15.10;99.90;;;;;;5035676;28;20049;-68
2022/07/27 05:42:03;;;;;;;0.10;0.10;;;15.10;99.90;;;;;;5036013;28;20057;-69
2022/07/27 05:44:29;;;;;;;0.10;0.10;;;15.20;99.90;;;;;;5044965;28;20541;-69
2022/07/27 05:46:55;;;;;;;0.30;0.30;;;15.20;99.90;;;;;;5051463;28;20471;-68
2022/07/27 05:49:21;;;;;;;0.32;0.32;;;15.30;99.90;;;;;;5040002;28;20061;-69
2022/07/27 05:51:46;;;;;;;0.20;0.10;;;15.30;99.90;;;;;;5035093;28;20412;-69
2022/07/27 05:54:12;;;;;;;0.00;0.00;;;15.40;99.90;;;;;;5045197;28;20073;-69
2022/07/27 05:56:37;;;;;;;0.10;0.10;;;15.40;99.90;;;;;;5036534;28;20372;-69
2022/07/27 05:59:03;;;;;;;0.00;0.00;;;15.40;99.90;;;;;;5028428;28;20061;-69
2022/07/27 06:01:29;;;;;;;0.52;0.52;;;15.50;99.90;;;;;;5035029;28;20512;-69
2022/07/27 06:03:55;;;;;;;0.15;0.15;;;15.60;99.90;;;;;;5048713;28;20091;-69
2022/07/27 06:09:04;;;;;;;0.00;0.00;;;15.60;99.90;;;;;;5035383;28;20041;-69
2022/07/27 06:11:30;;;;;;;0.10;0.10;;;15.70;99.90;;;;;;5030890;28;20042;-69
2022/07/27 06:13:55;;;;;;;0.10;0.10;;;15.70;99.90;;;;;;5033080;28;20058;-69
2022/07/27 06:16:22;;;;;;;0.05;0.05;;;15.80;99.90;;;;;;5044733;28;20037;-69
2022/07/27 06:18:47;;;;;;;0.00;0.00;;;15.80;99.90;;;;;;5031513;28;20045;-69
2022/07/27 06:21:13;;;;;;;0.00;0.00;;;15.80;99.90;;;;;;5038375;28;20543;-69
2022/07/27 06:23:38;;;;;;;0.10;0.10;;;15.90;99.90;;;;;;5033918;28;20560;-69
2022/07/27 06:26:04;;;;;;;0.10;0.10;;;16.00;99.90;;;;;;5046859;28;20408;-69
2022/07/27 06:28:30;;;;;;;0.00;0.00;;;16.00;99.90;;;;;;5049971;28;20503;-69
2022/07/27 06:30:55;;;;;;;0.10;0.10;;;16.00;99.90;;;;;;5049910;28;20056;-69
2022/07/27 06:33:26;;;;;;;0.00;0.00;;;16.00;99.90;;;;;;5032260;28;20512;-69
2022/07/27 06:35:53;;;;;;;0.00;0.00;;;16.10;99.90;;;;;;5040055;28;20076;-69
2022/07/27 06:38:20;;;;;;;0.00;0.00;;;16.20;99.90;;;;;;5038041;28;20103;-69
2022/07/27 06:40:46;;;;;;;0.10;0.10;;;16.30;99.90;;;;;;5045581;28;20184;-69
2022/07/27 06:43:12;;;;;;;0.15;0.15;;;16.40;99.90;;;;;;5048120;28;20056;-69
2022/07/27 06:45:37;;;;;;;0.10;0.10;;;16.50;99.90;;;;;;5047607;28;20041;-69
2022/07/27 06:48:03;;;;;;;0.20;0.20;;;16.60;99.90;;;;;;5043022;28;20051;-69
2022/07/27 06:50:29;;;;;;;0.10;0.10;;;16.60;99.90;;;;;;5049983;28;20086;-69
2022/07/27 06:52:54;;;;;;;0.03;0.03;;;16.80;99.90;;;;;;5037207;28;20041;-69
2022/07/27 06:55:20;;;;;;;0.00;0.00;;;16.90;99.90;;;;;;5036891;28;20044;-69
2022/07/27 06:57:46;;;;;;;0.00;0.00;;;17.00;99.90;;;;;;5029418;28;20045;-69
2022/07/27 07:00:12;;;;;;;0.08;0.08;;;17.10;99.90;;;;;;5033127;28;20533;-69
2022/07/27 07:02:56;;;;;;;0.10;0.10;;;17.10;99.90;;;;;;5049115;28;20053;-69
2022/07/27 07:05:22;;;;;;;0.00;0.00;;;17.10;99.90;;;;;;5032147;28;20110;-70
2022/07/27 07:07:48;;;;;;;0.00;0.00;;;17.10;99.90;;;;;;5030045;28;20053;-69
2022/07/27 07:10:14;;;;;;;0.10;0.10;;;17.10;99.90;;;;;;5028096;28;20060;-70
2022/07/27 07:12:40;;;;;;;0.10;0.10;;;17.10;99.90;;;;;;5028575;28;20046;-69
2022/07/27 07:15:06;;;;;;;0.10;0.10;;;17.00;99.90;;;;;;5040956;28;20041;-69
2022/07/27 07:17:32;;;;;;;0.00;0.00;;;17.10;99.90;;;;;;5037057;28;20600;-69
2022/07/27 07:19:58;;;;;;;0.00;0.00;;;17.10;99.90;;;;;;5028928;28;20116;-69
2022/07/27 07:22:24;;;;;;;0.00;0.00;;;17.10;99.90;;;;;;5026984;28;20664;-69
2022/07/27 07:24:50;;;;;;;0.10;0.10;;;17.10;99.90;;;;;;5033560;28;20049;-69
2022/07/27 07:27:18;;;;;;;0.00;0.00;;;17.10;99.90;;;;;;5029344;28;20124;-69
2022/07/27 07:29:44;;;;;;;0.10;0.10;;;17.20;99.90;;;;;;5026897;28;20045;-69
2022/07/27 07:32:09;;;;;;;0.05;0.05;;;17.40;99.90;;;;;;5044433;28;20045;-69
2022/07/27 07:34:35;;;;;;;0.20;0.20;;;17.40;99.90;;;;;;5048475;28;20568;-69
2022/07/27 07:37:01;;;;;;;0.00;0.00;;;17.60;99.90;;;;;;5027743;28;20044;-69
2022/07/27 07:39:26;;;;;;;0.00;0.00;;;17.80;99.90;;;;;;5027944;28;20428;-69
2022/07/27 07:41:52;;;;;;;0.00;0.00;;;17.80;99.90;;;;;;5036290;28;20053;-69
2022/07/27 07:44:18;;;;;;;0.00;0.00;;;17.70;99.90;;;;;;5033003;28;20077;-69
2022/07/27 07:46:43;;;;;;;0.10;0.10;;;17.60;99.90;;;;;;5039010;28;20512;-69
2022/07/27 07:49:09;;;;;;;0.05;0.05;;;17.40;99.90;;;;;;5028601;28;20053;-69
2022/07/27 07:51:35;;;;;;;0.10;0.10;;;17.40;99.90;;;;;;5026346;28;20060;-69
2022/07/27 07:54:01;;;;;;;0.00;0.00;;;17.30;99.90;;;;;;5028593;28;20370;-69
2022/07/27 07:56:26;;;;;;;0.00;0.00;;;17.30;99.90;;;;;;5027460;28;20072;-69
2022/07/27 07:58:52;;;;;;;0.10;0.10;;;17.20;99.90;;;;;;5026891;28;20068;-69
2022/07/27 08:01:18;;;;;;;0.40;0.40;;;17.30;99.90;;;;;;5030723;28;20659;-69
2022/07/27 08:03:43;;;;;;;0.10;0.10;;;17.40;99.90;;;;;;5028892;28;20045;-69
2022/07/27 08:06:09;;;;;;;0.10;0.10;;;17.40;99.90;;;;;;5045017;28;20049;-69
2022/07/27 08:08:35;;;;;;;1.83;1.70;;;17.40;99.90;;;;;;5043502;28;20048;-69
2022/07/27 08:11:00;;;;;;;0.00;0.00;;;17.40;99.90;;;;;;5028698;28;20087;-69
2022/07/27 08:13:26;;;;;;;0.00;0.00;;;17.60;99.90;;;;;;5026606;28;20041;-69
2022/07/27 08:15:52;;;;;;;0.10;0.10;;;17.60;99.90;;;;;;5031902;28;20527;-69
2022/07/27 08:18:18;;;;;;;0.10;0.10;;;17.70;99.90;;;;;;5031559;28;20036;-69
2022/07/27 08:20:44;;;;;;;0.00;0.00;;;17.70;99.90;;;;;;5028019;28;20053;-69
2022/07/27 08:23:11;;;;;;;0.00;0.00;;;17.70;99.90;;;;;;5027396;28;20049;-69
2022/07/27 08:25:37;;;;;;;0.00;0.00;;;17.60;99.90;;;;;;5044121;28;20124;-69
2022/07/27 08:28:03;;;;;;;0.00;0.00;;;17.50;99.90;;;;;;5026333;28;20065;-69
2022/07/27 08:30:29;;;;;;;0.10;0.10;;;17.50;99.90;;;;;;5028499;28;20037;-68
2022/07/27 08:32:58;;;;;;;0.00;0.00;;;17.50;99.90;;;;;;5033021;28;20467;-69
2022/07/27 08:35:25;;;;;;;0.00;0.00;;;17.50;99.90;;;;;;5036127;28;20107;-69
2022/07/27 08:37:51;;;;;;;0.20;0.20;;;17.50;99.90;;;;;;5028687;28;20137;-69
2022/07/27 08:40:18;;;;;;;0.00;0.00;;;17.50;99.90;;;;;;5027792;28;20117;-69
2022/07/27 08:42:44;;;;;;;0.10;0.10;;;17.50;99.90;;;;;;5042092;28;20049;-69
2022/07/27 08:45:14;;;;;;;0.00;0.00;;;17.60;99.90;;;;;;5033615;28;20056;-69
2022/07/27 08:47:41;;;;;;;0.00;0.00;;;17.60;99.90;;;;;;5028128;28;20044;-69
2022/07/27 08:50:24;;;;;;;0.10;0.10;;;17.60;99.90;;;;;;5042586;28;20069;-69
2022/07/27 08:53:07;;;;;;;0.27;0.27;;;17.80;99.90;;;;;;5028522;28;20379;-69
2022/07/27 08:55:40;;;;;;;;;;;17.80;99.90;;;;;;5028034;28;20053;-69
2022/07/27 08:58:08;;;;;;;0.00;0.00;;;17.80;99.90;;;;;;5027787;28;20410;-69
2022/07/27 09:00:35;;;;;;;0.00;0.00;;;17.90;99.90;;;;;;5039252;28;20097;-69
2022/07/27 09:03:01;;;;;;;0.10;0.10;;;18.10;99.90;;;;;;5029619;28;20493;-69
2022/07/27 09:05:27;;;;;;;0.10;0.10;;;18.20;99.90;;;;;;5031708;28;20052;-69
2022/07/27 09:07:53;;;;;;;0.00;0.00;;;18.30;99.90;;;;;;5028427;28;20153;-69
2022/07/27 09:10:30;;;;;;;0.00;0.00;;;18.30;99.90;;;;;;5029471;28;20048;-69
2022/07/27 09:12:56;;;;;;;0.00;0.00;;;18.50;99.90;;;;;;5035185;28;20049;-69
2022/07/27 09:15:21;;;;;;;0.00;0.00;;;18.60;99.90;;;;;;5044159;28;20428;-69
2022/07/27 09:17:47;;;;;;;0.00;0.00;;;18.60;99.90;;;;;;5044929;28;20044;-69
2022/07/27 09:20:16;;;;;;;0.00;0.00;;;18.70;99.90;;;;;;5033825;28;20045;-69
2022/07/27 09:22:54;;;;;;;0.00;0.00;;;18.80;99.90;;;;;;5031148;28;20096;-69
2022/07/27 09:25:24;;;;;;;0.10;0.10;;;18.80;99.90;;;;;;5031555;28;20061;-69
2022/07/27 09:27:55;;;;;;;0.10;0.10;;;18.80;99.90;;;;;;5031437;28;20168;-69
2022/07/27 09:30:21;;;;;;;0.10;0.10;;;18.70;99.90;;;;;;5035638;28;20077;-69
2022/07/27 09:33:05;;;;;;;0.00;0.00;;;18.60;99.90;;;;;;5034451;28;20044;-69
2022/07/27 09:35:34;;;;;;;0.30;0.30;;;18.60;99.90;;;;;;5037819;28;20117;-69
2022/07/27 09:38:22;;;;;;;0.00;0.00;;;18.60;99.90;;;;;;5031161;28;20108;-69
2022/07/27 09:41:01;;;;;;;0.00;0.00;;;18.50;99.90;;;;;;5029896;28;20049;-69
2022/07/27 09:43:28;;;;;;;0.00;0.00;;;18.70;99.90;;;;;;5030096;28;20477;-69
2022/07/27 09:45:54;;;;;;;0.00;0.00;;;18.80;99.90;;;;;;5033068;28;20403;-69
2022/07/27 09:48:22;;;;;;;0.30;0.30;;;18.70;99.90;;;;;;5030117;28;20060;-69
2022/07/27 09:50:57;;;;;;;0.08;0.08;;;18.60;99.90;;;;;;5032077;28;20661;-69
2022/07/27 09:53:26;;;;;;;0.10;0.10;;;18.60;99.90;;;;;;5030390;28;20048;-69
2022/07/27 09:56:05;;;;;;;0.28;0.28;;;18.40;99.90;;;;;;5034371;28;20049;-69
2022/07/27 09:58:52;;;;;;;0.00;0.00;;;18.30;99.90;;;;;;5035408;28;20064;-69
2022/07/27 10:01:20;;;;;;;0.15;0.15;;;18.30;99.90;;;;;;5040173;28;20547;-69
2022/07/27 10:03:47;;;;;;;0.10;0.10;;;18.40;99.90;;;;;;5036723;28;20064;-69
2022/07/27 10:06:14;;;;;;;0.00;0.00;;;19.10;99.90;;;;;;5031013;28;20084;-69
2022/07/27 10:08:43;;;;;;;0.00;0.00;;;19.80;99.90;;;;;;5050410;28;20041;-69
2022/07/27 10:11:09;;;;;;;0.00;0.00;;;20.30;99.90;;;;;;5046138;28;20731;-69
2022/07/27 10:13:35;;;;;;;0.00;0.00;;;20.80;99.90;;;;;;5035785;28;20062;-68
2022/07/27 10:16:05;;;;;;;0.10;0.10;;;21.00;99.90;;;;;;5047589;28;20040;-69
2022/07/27 10:18:34;;;;;;;0.10;0.10;;;21.20;99.90;;;;;;5049185;28;20048;-70
2022/07/27 10:21:06;;;;;;;0.00;0.00;;;21.40;99.90;;;;;;5038742;28;20057;-70
2022/07/27 10:23:34;;;;;;;0.00;0.00;;;21.30;99.90;;;;;;5052525;28;20102;-70
2022/07/27 10:26:20;;;;;;;0.00;0.00;;;21.30;99.90;;;;;;5042388;28;20060;-70
2022/07/27 10:29:01;;;;;;;0.00;0.00;;;21.60;99.90;;;;;;5049956;28;20094;-70
2022/07/27 10:31:30;;;;;;;0.00;0.00;;;22.00;99.90;;;;;;5035901;28;20370;-70
2022/07/27 10:33:59;;;;;;;0.00;0.00;;;21.80;99.90;;;;;;5044584;28;20049;-69
2022/07/27 10:36:30;;;;;;;0.28;0.28;;;21.40;99.90;;;;;;5030288;28;20057;-70
2022/07/27 10:39:02;;;;;;;0.00;0.00;;;21.60;99.90;;;;;;5040818;28;20045;-70
2022/07/27 10:41:31;;;;;;;0.00;0.00;;;21.90;99.90;;;;;;5028891;28;20037;-69
2022/07/27 10:44:19;;;;;;;0.40;0.40;;;21.60;99.90;;;;;;5041377;28;20037;-70
2022/07/27 10:46:53;;;;;;;0.00;0.00;;;21.50;99.90;;;;;;5043312;28;20052;-70
2022/07/27 10:49:23;;;;;;;0.03;0.03;;;21.50;99.90;;;;;;5036520;28;20389;-70
2022/07/27 10:51:51;;;;;;;0.00;0.00;;;21.50;99.90;;;;;;5030261;28;20107;-70
2022/07/27 10:54:31;;;;;;;0.15;0.08;;;21.40;99.90;;;;;;5050234;28;20540;-70
2022/07/27 10:56:58;;;;;;;0.10;0.10;;;21.60;99.90;;;;;;5050152;28;20480;-70
2022/07/27 10:59:39;;;;;;;0.00;0.00;;;21.80;99.90;;;;;;5029587;28;20080;-70
2022/07/27 11:02:06;;;;;;;0.00;0.00;;;21.80;99.30;;;;;;5041479;28;20071;-70
2022/07/27 11:04:32;;;;;;;0.00;0.00;;;22.00;99.60;;;;;;5049753;28;20049;-70
2022/07/27 11:07:01;;;;;;;0.00;0.00;;;21.90;99.90;;;;;;5032797;28;20139;-70
2022/07/27 11:09:37;;;;;;;0.00;0.00;;;21.80;99.90;;;;;;5032465;28;20045;-70
2022/07/27 11:12:05;;;;;;;0.00;0.00;;;21.50;99.80;;;;;;5029664;28;20501;-70
2022/07/27 11:14:48;;;;;;;0.00;0.00;;;21.00;99.90;;;;;;5036276;28;20397;-70
2022/07/27 11:17:14;;;;;;;0.10;0.10;;;20.80;99.90;;;;;;5029801;28;20057;-71
2022/07/27 11:19:40;;;;;;;0.00;0.00;;;21.50;99.90;;;;;;5027363;28;20567;-70
2022/07/27 11:22:06;;;;;;;0.00;0.00;;;21.60;99.90;;;;;;5033905;28;20136;-70
2022/07/27 11:24:35;;;;;;;0.00;0.00;;;22.00;99.90;;;;;;5028281;28;20042;-70
2022/07/27 11:27:01;;;;;;;0.00;0.00;;;21.90;99.90;;;;;;5038598;28;20041;-70
2022/07/27 11:29:27;;;;;;;0.00;0.00;;;22.30;99.90;;;;;;5036172;28;20049;-70
2022/07/27 11:31:54;;;;;;;0.00;0.00;;;22.50;99.90;;;;;;5039335;28;20936;-70
2022/07/27 11:34:32;;;;;;;0.00;0.00;;;22.20;99.90;;;;;;5037183;28;20048;-70
2022/07/27 11:37:01;;;;;;;0.10;0.10;;;21.70;99.60;;;;;;5031364;28;20518;-70
2022/07/27 11:39:29;;;;;;;0.00;0.00;;;21.40;99.90;;;;;;5041635;28;20040;-69
2022/07/27 11:41:56;;;;;;;0.00;0.00;;;21.70;99.90;;;;;;5043423;28;20041;-69
2022/07/27 11:44:22;;;;;;;0.00;0.00;;;21.80;99.90;;;;;;5039734;28;20040;-70
2022/07/27 11:46:49;;;;;;;0.03;0.03;;;21.40;99.90;;;;;;5046781;28;20056;-70
2022/07/27 11:49:29;;;;;;;0.00;0.00;;;21.40;99.90;;;;;;5039498;28;20429;-70
2022/07/27 11:52:01;;;;;;;0.00;0.00;;;22.10;99.90;;;;;;5044794;28;20056;-70
2022/07/27 11:54:32;;;;;;;0.00;0.00;;;22.60;99.90;;;;;;5030226;28;20038;-70
2022/07/27 11:57:04;;;;;;;0.52;0.40;;;22.80;99.90;;;;;;5033438;28;20040;-70
2022/07/27 11:59:33;;;;;;;0.00;0.00;;;22.50;99.90;;;;;;5035240;28;20052;-70
2022/07/27 12:02:05;;;;;;;0.00;0.00;;;22.80;99.90;;;;;;5041097;28;20144;-70
2022/07/27 12:04:36;;;;;;;0.20;0.20;;;23.20;99.90;;;;;;5036774;28;20057;-70
2022/07/27 12:07:06;;;;;;;0.00;0.00;;;23.50;99.90;;;;;;5045569;28;20550;-70
2022/07/27 12:09:46;;;;;;;0.00;0.00;;;23.00;99.90;;;;;;5039717;28;20037;-70
2022/07/27 12:12:18;;;;;;;0.10;0.10;;;23.00;99.20;;;;;;5026451;28;20103;-70
2022/07/27 12:14:53;;;;;;;0.00;0.00;;;23.40;99.40;;;;;;5036341;28;20045;-70
2022/07/27 12:17:30;;;;;;;17.08;3.53;;;23.50;97.90;;;;;;5028424;28;20127;-70
2022/07/27 12:20:09;;;;;;;0.00;0.00;;;23.70;97.80;;;;;;5028384;28;20048;-70
2022/07/27 12:22:55;;;;;;;0.00;0.00;;;23.60;98.20;;;;;;5031541;28;20045;-70
2022/07/27 12:25:20;;;;;;;0.00;0.00;;;23.80;97.90;;;;;;5035272;28;20060;-70
2022/07/27 12:27:56;;;;;;;0.38;0.38;;;24.00;98.10;;;;;;5028600;28;20405;-70
2022/07/27 12:30:36;;;;;;;0.00;0.00;;;24.00;97.60;;;;;;5030758;28;20052;-70
2022/07/27 12:33:26;;;;;;;0.00;0.00;;;23.50;97.20;;;;;;5027054;28;20041;-70
2022/07/27 12:35:52;;;;;;;0.00;0.00;;;23.70;97.40;;;;;;5025526;28;20053;-69
2022/07/27 12:38:18;;;;;;;0.00;0.00;;;23.70;97.80;;;;;;5026584;28;20095;-69
2022/07/27 12:40:49;;;;;;;0.00;0.00;;;23.50;97.60;;;;;;5027841;28;20050;-70
2022/07/27 12:43:20;;;;;;;0.00;0.00;;;24.10;99.00;;;;;;5036214;28;20045;-70
2022/07/27 12:45:47;;;;;;;0.00;0.00;;;24.30;98.10;;;;;;5028520;28;20037;-70
2022/07/27 12:48:27;;;;;;;0.00;0.00;;;24.50;97.90;;;;;;5043013;28;20049;-70
2022/07/27 12:51:01;;;;;;;0.00;0.00;;;23.60;97.40;;;;;;5028450;28;20056;-70
2022/07/27 12:53:28;;;;;;;0.00;0.00;;;23.10;98.00;;;;;;5026951;28;20495;-70